sensor_id;sensor_type;location;lat;lon;timestamp;temperature;humidity
68450;SHT30;55434;39.570;2.652;2023-02-01T00:01:54;7.69;78.19
68450;SHT30;55434;39.570;2.652;2023-02-01T00:04:20;7.68;78.12
68450;SHT30;55434;39.570;2.652;2023-02-01T00:06:45;7.66;78.37
68450;SHT30;55434;39.570;2.652;2023-02-01T00:09:11;7.68;78.38
68450;SHT30;55434;39.570;2.652;2023-02-01T00:11:37;7.62;78.41
68450;SHT30;55434;39.570;2.652;2023-02-01T00:14:03;7.74;78.25
68450;SHT30;55434;39.570;2.652;2023-02-01T00:16:30;7.56;78.38
68450;SHT30;55434;39.570;2.652;2023-02-01T00:19:04;7.54;78.84
68450;SHT30;55434;39.570;2.652;2023-02-01T00:21:30;7.45;78.93
68450;SHT30;55434;39.570;2.652;2023-02-01T00:23:56;7.44;79.06
68450;SHT30;55434;39.570;2.652;2023-02-01T00:26:32;7.30;79.63
68450;SHT30;55434;39.570;2.652;2023-02-01T00:28:58;7.24;80.03
68450;SHT30;55434;39.570;2.652;2023-02-01T00:31:23;7.20;80.25
68450;SHT30;55434;39.570;2.652;2023-02-01T00:33:49;7.20;80.34
68450;SHT30;55434;39.570;2.652;2023-02-01T00:36:15;7.11;80.66
68450;SHT30;55434;39.570;2.652;2023-02-01T00:38:41;7.07;81.04
68450;SHT30;55434;39.570;2.652;2023-02-01T00:41:19;7.10;81.08
68450;SHT30;55434;39.570;2.652;2023-02-01T00:43:46;7.06;81.36
68450;SHT30;55434;39.570;2.652;2023-02-01T00:46:13;7.04;81.47
68450;SHT30;55434;39.570;2.652;2023-02-01T00:48:39;7.00;81.65
68450;SHT30;55434;39.570;2.652;2023-02-01T00:51:10;7.01;81.84
68450;SHT30;55434;39.570;2.652;2023-02-01T00:53:36;7.00;81.91
68450;SHT30;55434;39.570;2.652;2023-02-01T00:56:05;7.08;81.90
68450;SHT30;55434;39.570;2.652;2023-02-01T00:58:33;7.15;81.71
68450;SHT30;55434;39.570;2.652;2023-02-01T01:01:13;7.04;81.75
68450;SHT30;55434;39.570;2.652;2023-02-01T01:03:46;7.03;81.88
68450;SHT30;55434;39.570;2.652;2023-02-01T01:06:15;7.03;82.00
68450;SHT30;55434;39.570;2.652;2023-02-01T01:08:41;6.99;82.04
68450;SHT30;55434;39.570;2.652;2023-02-01T01:11:10;6.96;82.20
68450;SHT30;55434;39.570;2.652;2023-02-01T01:13:36;6.97;82.28
68450;SHT30;55434;39.570;2.652;2023-02-01T01:16:03;6.97;82.19
68450;SHT30;55434;39.570;2.652;2023-02-01T01:18:30;7.00;82.19
68450;SHT30;55434;39.570;2.652;2023-02-01T01:20:57;7.04;82.19
68450;SHT30;55434;39.570;2.652;2023-02-01T01:23:23;7.00;82.04
68450;SHT30;55434;39.570;2.652;2023-02-01T01:25:48;6.97;82.29
68450;SHT30;55434;39.570;2.652;2023-02-01T01:28:14;6.94;82.47
68450;SHT30;55434;39.570;2.652;2023-02-01T01:30:40;6.97;82.42
68450;SHT30;55434;39.570;2.652;2023-02-01T01:33:05;6.92;82.42
68450;SHT30;55434;39.570;2.652;2023-02-01T01:35:32;6.90;82.50
68450;SHT30;55434;39.570;2.652;2023-02-01T01:37:59;6.87;82.70
68450;SHT30;55434;39.570;2.652;2023-02-01T01:40:26;6.87;82.73
68450;SHT30;55434;39.570;2.652;2023-02-01T01:42:52;6.89;82.77
68450;SHT30;55434;39.570;2.652;2023-02-01T01:45:33;6.87;82.71
68450;SHT30;55434;39.570;2.652;2023-02-01T01:48:04;6.82;82.51
68450;SHT30;55434;39.570;2.652;2023-02-01T01:50:39;6.80;82.47
68450;SHT30;55434;39.570;2.652;2023-02-01T01:53:08;6.86;82.96
68450;SHT30;55434;39.570;2.652;2023-02-01T01:55:41;6.86;82.85
68450;SHT30;55434;39.570;2.652;2023-02-01T01:58:11;6.82;82.26
68450;SHT30;55434;39.570;2.652;2023-02-01T02:00:38;6.84;82.85
68450;SHT30;55434;39.570;2.652;2023-02-01T02:03:11;6.86;83.01
68450;SHT30;55434;39.570;2.652;2023-02-01T02:05:39;6.87;83.00
68450;SHT30;55434;39.570;2.652;2023-02-01T02:08:05;6.89;82.93
68450;SHT30;55434;39.570;2.652;2023-02-01T02:10:31;6.83;82.90
68450;SHT30;55434;39.570;2.652;2023-02-01T02:13:38;6.94;82.52
68450;SHT30;55434;39.570;2.652;2023-02-01T02:21:22;6.87;82.91
68450;SHT30;55434;39.570;2.652;2023-02-01T02:26:53;6.73;83.28
68450;SHT30;55434;39.570;2.652;2023-02-01T02:29:46;6.73;83.55
68450;SHT30;55434;39.570;2.652;2023-02-01T02:32:29;6.66;83.83
68450;SHT30;55434;39.570;2.652;2023-02-01T02:40:37;6.57;84.05
68450;SHT30;55434;39.570;2.652;2023-02-01T02:43:22;6.59;84.12
68450;SHT30;55434;39.570;2.652;2023-02-01T02:47:00;6.63;83.99
68450;SHT30;55434;39.570;2.652;2023-02-01T02:49:34;6.63;84.00
68450;SHT30;55434;39.570;2.652;2023-02-01T02:52:13;6.57;84.09
68450;SHT30;55434;39.570;2.652;2023-02-01T02:55:19;6.65;83.97
68450;SHT30;55434;39.570;2.652;2023-02-01T02:57:46;6.65;84.02
68450;SHT30;55434;39.570;2.652;2023-02-01T03:00:32;6.66;83.92
68450;SHT30;55434;39.570;2.652;2023-02-01T03:03:17;6.66;84.01
68450;SHT30;55434;39.570;2.652;2023-02-01T03:06:02;6.63;83.98
68450;SHT30;55434;39.570;2.652;2023-02-01T03:08:31;6.65;84.01
68450;SHT30;55434;39.570;2.652;2023-02-01T03:11:01;6.69;83.89
68450;SHT30;55434;39.570;2.652;2023-02-01T03:13:40;6.68;83.85
68450;SHT30;55434;39.570;2.652;2023-02-01T03:19:11;6.68;84.01
68450;SHT30;55434;39.570;2.652;2023-02-01T03:21:43;6.66;83.88
68450;SHT30;55434;39.570;2.652;2023-02-01T03:24:12;6.66;83.91
68450;SHT30;55434;39.570;2.652;2023-02-01T03:26:45;6.66;83.92
68450;SHT30;55434;39.570;2.652;2023-02-01T03:29:22;6.63;83.95
68450;SHT30;55434;39.570;2.652;2023-02-01T03:31:49;6.62;83.98
68450;SHT30;55434;39.570;2.652;2023-02-01T03:34:15;6.65;84.12
68450;SHT30;55434;39.570;2.652;2023-02-01T03:36:58;6.65;83.87
68450;SHT30;55434;39.570;2.652;2023-02-01T03:41:56;6.57;84.12
68450;SHT30;55434;39.570;2.652;2023-02-01T03:47:14;6.50;84.36
68450;SHT30;55434;39.570;2.652;2023-02-01T03:49:43;6.46;84.49
68450;SHT30;55434;39.570;2.652;2023-02-01T03:52:19;6.41;84.76
68450;SHT30;55434;39.570;2.652;2023-02-01T03:54:46;6.38;84.90
68450;SHT30;55434;39.570;2.652;2023-02-01T03:57:14;6.36;85.00
68450;SHT30;55434;39.570;2.652;2023-02-01T03:59:44;6.32;85.28
68450;SHT30;55434;39.570;2.652;2023-02-01T04:02:10;6.25;85.39
68450;SHT30;55434;39.570;2.652;2023-02-01T04:04:37;6.24;85.62
68450;SHT30;55434;39.570;2.652;2023-02-01T04:07:03;6.22;85.82
68450;SHT30;55434;39.570;2.652;2023-02-01T04:09:29;6.22;85.96
68450;SHT30;55434;39.570;2.652;2023-02-01T04:11:55;6.22;86.09
68450;SHT30;55434;39.570;2.652;2023-02-01T04:14:20;6.24;86.07
68450;SHT30;55434;39.570;2.652;2023-02-01T04:16:46;6.21;86.17
68450;SHT30;55434;39.570;2.652;2023-02-01T04:19:12;6.26;86.12
68450;SHT30;55434;39.570;2.652;2023-02-01T04:21:38;6.32;85.96
68450;SHT30;55434;39.570;2.652;2023-02-01T04:24:04;6.35;85.80
68450;SHT30;55434;39.570;2.652;2023-02-01T04:26:30;6.42;85.64
68450;SHT30;55434;39.570;2.652;2023-02-01T04:28:55;6.45;85.46
68450;SHT30;55434;39.570;2.652;2023-02-01T04:31:21;6.52;85.48
68450;SHT30;55434;39.570;2.652;2023-02-01T04:33:58;6.59;85.22
68450;SHT30;55434;39.570;2.652;2023-02-01T04:36:49;6.68;84.91
68450;SHT30;55434;39.570;2.652;2023-02-01T04:39:14;6.72;84.71
68450;SHT30;55434;39.570;2.652;2023-02-01T04:41:40;6.75;84.61
68450;SHT30;55434;39.570;2.652;2023-02-01T04:44:06;6.82;84.59
68450;SHT30;55434;39.570;2.652;2023-02-01T04:46:32;6.80;84.41
68450;SHT30;55434;39.570;2.652;2023-02-01T04:48:57;6.79;84.23
68450;SHT30;55434;39.570;2.652;2023-02-01T04:51:23;6.79;84.02
68450;SHT30;55434;39.570;2.652;2023-02-01T04:53:49;6.76;84.43
68450;SHT30;55434;39.570;2.652;2023-02-01T04:56:14;6.79;84.77
68450;SHT30;55434;39.570;2.652;2023-02-01T04:58:40;6.84;84.57
68450;SHT30;55434;39.570;2.652;2023-02-01T05:01:06;6.87;84.60
68450;SHT30;55434;39.570;2.652;2023-02-01T05:03:33;6.92;84.76
68450;SHT30;55434;39.570;2.652;2023-02-01T05:05:59;6.96;84.45
68450;SHT30;55434;39.570;2.652;2023-02-01T05:08:25;6.96;84.38
68450;SHT30;55434;39.570;2.652;2023-02-01T05:10:52;6.99;84.40
68450;SHT30;55434;39.570;2.652;2023-02-01T05:13:18;6.97;84.59
68450;SHT30;55434;39.570;2.652;2023-02-01T05:16:02;7.03;84.64
68450;SHT30;55434;39.570;2.652;2023-02-01T05:18:28;7.07;84.75
68450;SHT30;55434;39.570;2.652;2023-02-01T05:20:54;7.13;84.26
68450;SHT30;55434;39.570;2.652;2023-02-01T05:23:19;7.11;83.96
68450;SHT30;55434;39.570;2.652;2023-02-01T05:25:45;7.03;83.97
68450;SHT30;55434;39.570;2.652;2023-02-01T05:28:10;7.03;84.01
68450;SHT30;55434;39.570;2.652;2023-02-01T05:30:36;6.96;84.12
68450;SHT30;55434;39.570;2.652;2023-02-01T05:33:03;6.93;84.15
68450;SHT30;55434;39.570;2.652;2023-02-01T05:35:28;6.92;84.25
68450;SHT30;55434;39.570;2.652;2023-02-01T05:37:54;6.90;84.15
68450;SHT30;55434;39.570;2.652;2023-02-01T05:40:21;6.86;84.26
68450;SHT30;55434;39.570;2.652;2023-02-01T05:42:47;6.82;84.40
68450;SHT30;55434;39.570;2.652;2023-02-01T05:45:13;6.76;84.72
68450;SHT30;55434;39.570;2.652;2023-02-01T05:47:38;6.73;84.89
68450;SHT30;55434;39.570;2.652;2023-02-01T05:50:05;6.73;84.80
68450;SHT30;55434;39.570;2.652;2023-02-01T05:52:31;6.69;84.63
68450;SHT30;55434;39.570;2.652;2023-02-01T05:54:57;6.72;84.80
68450;SHT30;55434;39.570;2.652;2023-02-01T05:57:23;6.80;85.35
68450;SHT30;55434;39.570;2.652;2023-02-01T05:59:49;6.82;84.72
68450;SHT30;55434;39.570;2.652;2023-02-01T06:02:15;6.76;84.18
68450;SHT30;55434;39.570;2.652;2023-02-01T06:04:43;6.73;84.26
68450;SHT30;55434;39.570;2.652;2023-02-01T06:07:10;6.82;85.35
68450;SHT30;55434;39.570;2.652;2023-02-01T06:09:36;6.90;85.06
68450;SHT30;55434;39.570;2.652;2023-02-01T06:12:03;6.87;84.74
68450;SHT30;55434;39.570;2.652;2023-02-01T06:14:29;6.83;84.60
68450;SHT30;55434;39.570;2.652;2023-02-01T06:16:55;6.80;84.54
68450;SHT30;55434;39.570;2.652;2023-02-01T06:19:21;6.83;84.63
68450;SHT30;55434;39.570;2.652;2023-02-01T06:21:47;6.80;84.99
68450;SHT30;55434;39.570;2.652;2023-02-01T06:24:13;6.80;85.57
68450;SHT30;55434;39.570;2.652;2023-02-01T06:26:39;6.83;85.69
68450;SHT30;55434;39.570;2.652;2023-02-01T06:29:14;6.90;85.01
68450;SHT30;55434;39.570;2.652;2023-02-01T06:31:40;6.99;85.28
68450;SHT30;55434;39.570;2.652;2023-02-01T06:34:07;7.07;85.15
68450;SHT30;55434;39.570;2.652;2023-02-01T06:36:33;7.07;84.91
68450;SHT30;55434;39.570;2.652;2023-02-01T06:38:59;6.96;85.19
68450;SHT30;55434;39.570;2.652;2023-02-01T06:41:25;6.94;85.60
68450;SHT30;55434;39.570;2.652;2023-02-01T06:43:51;6.92;86.00
68450;SHT30;55434;39.570;2.652;2023-02-01T06:46:17;6.90;85.83
68450;SHT30;55434;39.570;2.652;2023-02-01T06:48:43;6.73;85.32
68450;SHT30;55434;39.570;2.652;2023-02-01T06:51:29;6.68;85.62
68450;SHT30;55434;39.570;2.652;2023-02-01T06:53:55;6.69;85.76
68450;SHT30;55434;39.570;2.652;2023-02-01T06:56:21;6.65;86.11
68450;SHT30;55434;39.570;2.652;2023-02-01T06:58:47;6.66;86.16
68450;SHT30;55434;39.570;2.652;2023-02-01T07:01:14;6.75;86.43
68450;SHT30;55434;39.570;2.652;2023-02-01T07:03:39;6.77;86.44
68450;SHT30;55434;39.570;2.652;2023-02-01T07:06:07;6.80;86.33
68450;SHT30;55434;39.570;2.652;2023-02-01T07:08:35;6.86;86.14
68450;SHT30;55434;39.570;2.652;2023-02-01T07:11:06;6.83;85.66
68450;SHT30;55434;39.570;2.652;2023-02-01T07:13:33;6.76;85.26
68450;SHT30;55434;39.570;2.652;2023-02-01T07:16:04;6.73;85.63
68450;SHT30;55434;39.570;2.652;2023-02-01T07:18:33;6.72;85.51
68450;SHT30;55434;39.570;2.652;2023-02-01T07:20:59;6.66;85.36
68450;SHT30;55434;39.570;2.652;2023-02-01T07:23:26;6.65;85.45
68450;SHT30;55434;39.570;2.652;2023-02-01T07:25:54;6.66;85.42
68450;SHT30;55434;39.570;2.652;2023-02-01T07:28:24;6.94;85.59
68450;SHT30;55434;39.570;2.652;2023-02-01T07:30:50;6.84;85.10
68450;SHT30;55434;39.570;2.652;2023-02-01T07:33:21;6.97;85.01
68450;SHT30;55434;39.570;2.652;2023-02-01T07:35:47;7.04;85.30
68450;SHT30;55434;39.570;2.652;2023-02-01T07:38:14;7.11;85.51
68450;SHT30;55434;39.570;2.652;2023-02-01T07:40:40;7.13;85.09
68450;SHT30;55434;39.570;2.652;2023-02-01T07:43:06;7.13;85.25
68450;SHT30;55434;39.570;2.652;2023-02-01T07:45:34;7.14;85.00
68450;SHT30;55434;39.570;2.652;2023-02-01T07:48:01;7.15;84.83
68450;SHT30;55434;39.570;2.652;2023-02-01T07:50:30;7.25;84.71
68450;SHT30;55434;39.570;2.652;2023-02-01T07:52:59;7.28;84.72
68450;SHT30;55434;39.570;2.652;2023-02-01T07:55:27;7.35;84.68
68450;SHT30;55434;39.570;2.652;2023-02-01T07:57:57;7.37;84.57
68450;SHT30;55434;39.570;2.652;2023-02-01T08:00:22;7.56;84.47
68450;SHT30;55434;39.570;2.652;2023-02-01T08:03:07;7.62;84.40
68450;SHT30;55434;39.570;2.652;2023-02-01T08:05:33;7.76;83.90
68450;SHT30;55434;39.570;2.652;2023-02-01T08:07:59;7.81;83.47
68450;SHT30;55434;39.570;2.652;2023-02-01T08:10:25;7.76;83.50
68450;SHT30;55434;39.570;2.652;2023-02-01T08:12:51;7.76;83.37
68450;SHT30;55434;39.570;2.652;2023-02-01T08:15:20;7.74;83.30
68450;SHT30;55434;39.570;2.652;2023-02-01T08:17:50;7.88;83.36
68450;SHT30;55434;39.570;2.652;2023-02-01T08:20:17;8.02;83.41
68450;SHT30;55434;39.570;2.652;2023-02-01T08:22:43;8.14;83.31
68450;SHT30;55434;39.570;2.652;2023-02-01T08:25:10;8.14;82.89
68450;SHT30;55434;39.570;2.652;2023-02-01T08:27:38;8.12;82.74
68450;SHT30;55434;39.570;2.652;2023-02-01T08:30:06;8.19;83.00
68450;SHT30;55434;39.570;2.652;2023-02-01T08:32:33;8.36;82.89
68450;SHT30;55434;39.570;2.652;2023-02-01T08:34:58;8.43;82.59
68450;SHT30;55434;39.570;2.652;2023-02-01T08:37:24;8.54;82.69
68450;SHT30;55434;39.570;2.652;2023-02-01T08:39:50;8.75;82.04
68450;SHT30;55434;39.570;2.652;2023-02-01T08:42:16;8.72;82.10
68450;SHT30;55434;39.570;2.652;2023-02-01T08:45:01;8.80;82.43
68450;SHT30;55434;39.570;2.652;2023-02-01T08:47:28;8.89;82.24
68450;SHT30;55434;39.570;2.652;2023-02-01T08:49:54;9.02;82.24
68450;SHT30;55434;39.570;2.652;2023-02-01T08:52:19;9.15;81.97
68450;SHT30;55434;39.570;2.652;2023-02-01T08:54:45;9.11;81.75
68450;SHT30;55434;39.570;2.652;2023-02-01T08:57:11;9.14;82.11
68450;SHT30;55434;39.570;2.652;2023-02-01T08:59:37;9.19;82.13
68450;SHT30;55434;39.570;2.652;2023-02-01T09:02:03;9.25;81.97
68450;SHT30;55434;39.570;2.652;2023-02-01T09:04:28;9.31;81.75
68450;SHT30;55434;39.570;2.652;2023-02-01T09:06:54;9.33;81.77
68450;SHT30;55434;39.570;2.652;2023-02-01T09:09:23;9.35;81.76
68450;SHT30;55434;39.570;2.652;2023-02-01T09:11:49;9.42;81.94
68450;SHT30;55434;39.570;2.652;2023-02-01T09:14:16;9.42;81.90
68450;SHT30;55434;39.570;2.652;2023-02-01T09:16:42;9.47;82.05
68450;SHT30;55434;39.570;2.652;2023-02-01T09:19:08;9.57;81.77
68450;SHT30;55434;39.570;2.652;2023-02-01T09:21:34;9.62;81.65
68450;SHT30;55434;39.570;2.652;2023-02-01T09:24:00;9.69;81.63
68450;SHT30;55434;39.570;2.652;2023-02-01T09:26:28;9.77;81.53
68450;SHT30;55434;39.570;2.652;2023-02-01T09:28:54;9.84;81.47
68450;SHT30;55434;39.570;2.652;2023-02-01T09:31:20;10.03;81.20
68450;SHT30;55434;39.570;2.652;2023-02-01T09:33:46;10.14;80.78
68450;SHT30;55434;39.570;2.652;2023-02-01T09:36:12;10.18;80.66
68450;SHT30;55434;39.570;2.652;2023-02-01T09:38:38;10.22;80.51
68450;SHT30;55434;39.570;2.652;2023-02-01T09:46:36;10.80;79.35
68450;SHT30;55434;39.570;2.652;2023-02-01T09:49:12;10.97;79.02
68450;SHT30;55434;39.570;2.652;2023-02-01T09:51:43;11.05;78.56
68450;SHT30;55434;39.570;2.652;2023-02-01T09:56:48;11.19;77.99
68450;SHT30;55434;39.570;2.652;2023-02-01T10:02:12;11.67;77.20
68450;SHT30;55434;39.570;2.652;2023-02-01T10:04:38;11.92;76.92
68450;SHT30;55434;39.570;2.652;2023-02-01T10:07:26;12.11;76.14
68450;SHT30;55434;39.570;2.652;2023-02-01T10:09:58;12.32;75.34
68450;SHT30;55434;39.570;2.652;2023-02-01T10:12:41;12.49;74.75
68450;SHT30;55434;39.570;2.652;2023-02-01T10:23:49;12.64;72.11
68450;SHT30;55434;39.570;2.652;2023-02-01T10:26:19;12.76;71.82
68450;SHT30;55434;39.570;2.652;2023-02-01T10:28:55;12.93;71.84
68450;SHT30;55434;39.570;2.652;2023-02-01T10:31:34;12.99;72.09
68450;SHT30;55434;39.570;2.652;2023-02-01T10:34:15;13.14;71.66
68450;SHT30;55434;39.570;2.652;2023-02-01T10:36:50;13.25;71.46
68450;SHT30;55434;39.570;2.652;2023-02-01T10:39:18;13.38;71.04
68450;SHT30;55434;39.570;2.652;2023-02-01T10:41:44;13.95;70.20
68450;SHT30;55434;39.570;2.652;2023-02-01T10:44:22;15.79;64.30
68450;SHT30;55434;39.570;2.652;2023-02-01T10:46:50;16.95;59.83
68450;SHT30;55434;39.570;2.652;2023-02-01T10:52:17;17.66;57.44
68450;SHT30;55434;39.570;2.652;2023-02-01T10:54:45;17.70;57.50
68450;SHT30;55434;39.570;2.652;2023-02-01T10:57:23;18.11;56.72
68450;SHT30;55434;39.570;2.652;2023-02-01T10:59:53;18.21;55.82
68450;SHT30;55434;39.570;2.652;2023-02-01T11:02:27;18.49;54.92
68450;SHT30;55434;39.570;2.652;2023-02-01T11:05:05;18.18;55.83
68450;SHT30;55434;39.570;2.652;2023-02-01T11:07:35;17.49;58.16
68450;SHT30;55434;39.570;2.652;2023-02-01T11:10:02;17.36;58.87
68450;SHT30;55434;39.570;2.652;2023-02-01T11:12:30;18.01;57.22
68450;SHT30;55434;39.570;2.652;2023-02-01T11:17:44;19.46;54.04
68450;SHT30;55434;39.570;2.652;2023-02-01T11:20:35;19.30;53.54
68450;SHT30;55434;39.570;2.652;2023-02-01T11:23:03;18.96;53.77
68450;SHT30;55434;39.570;2.652;2023-02-01T11:25:30;19.30;53.53
68450;SHT30;55434;39.570;2.652;2023-02-01T11:27:59;19.44;53.38
68450;SHT30;55434;39.570;2.652;2023-02-01T11:30:39;19.37;53.14
68450;SHT30;55434;39.570;2.652;2023-02-01T11:33:16;19.54;53.27
68450;SHT30;55434;39.570;2.652;2023-02-01T11:36:45;19.88;52.52
68450;SHT30;55434;39.570;2.652;2023-02-01T11:39:33;19.59;52.59
68450;SHT30;55434;39.570;2.652;2023-02-01T11:44:40;19.96;52.06
68450;SHT30;55434;39.570;2.652;2023-02-01T11:47:28;18.95;53.72
68450;SHT30;55434;39.570;2.652;2023-02-01T11:50:12;18.92;54.05
68450;SHT30;55434;39.570;2.652;2023-02-01T11:55:56;19.37;52.49
68450;SHT30;55434;39.570;2.652;2023-02-01T12:06:14;20.02;50.54
68450;SHT30;55434;39.570;2.652;2023-02-01T12:14:36;19.95;51.14
68450;SHT30;55434;39.570;2.652;2023-02-01T12:28:10;19.68;52.00
68450;SHT30;55434;39.570;2.652;2023-02-01T12:33:40;19.95;50.94
68450;SHT30;55434;39.570;2.652;2023-02-01T12:36:19;20.08;50.84
68450;SHT30;55434;39.570;2.652;2023-02-01T12:39:00;20.05;50.61
68450;SHT30;55434;39.570;2.652;2023-02-01T12:52:47;19.21;52.92
68450;SHT30;55434;39.570;2.652;2023-02-01T12:57:58;18.70;54.51
68450;SHT30;55434;39.570;2.652;2023-02-01T13:00:32;18.45;55.18
68450;SHT30;55434;39.570;2.652;2023-02-01T13:03:14;17.37;57.91
68450;SHT30;55434;39.570;2.652;2023-02-01T13:06:12;17.23;57.89
68450;SHT30;55434;39.570;2.652;2023-02-01T13:08:56;17.30;57.39
68450;SHT30;55434;39.570;2.652;2023-02-01T13:11:34;16.58;60.10
68450;SHT30;55434;39.570;2.652;2023-02-01T13:16:59;15.86;61.21
68450;SHT30;55434;39.570;2.652;2023-02-01T13:19:47;15.97;60.26
68450;SHT30;55434;39.570;2.652;2023-02-01T13:22:29;16.00;60.45
68450;SHT30;55434;39.570;2.652;2023-02-01T13:24:59;15.87;60.37
68450;SHT30;55434;39.570;2.652;2023-02-01T13:27:29;15.96;60.60
68450;SHT30;55434;39.570;2.652;2023-02-01T13:44:33;15.71;59.00
68450;SHT30;55434;39.570;2.652;2023-02-01T13:47:03;15.63;58.81
68450;SHT30;55434;39.570;2.652;2023-02-01T13:49:38;15.55;58.54
68450;SHT30;55434;39.570;2.652;2023-02-01T13:52:05;15.74;58.67
68450;SHT30;55434;39.570;2.652;2023-02-01T13:54:33;15.82;58.69
68450;SHT30;55434;39.570;2.652;2023-02-01T13:57:01;15.91;58.25
68450;SHT30;55434;39.570;2.652;2023-02-01T14:05:10;16.13;58.32
68450;SHT30;55434;39.570;2.652;2023-02-01T14:07:36;16.27;58.42
68450;SHT30;55434;39.570;2.652;2023-02-01T14:24:23;16.27;55.59
68450;SHT30;55434;39.570;2.652;2023-02-01T14:26:51;16.04;55.13
68450;SHT30;55434;39.570;2.652;2023-02-01T14:29:35;15.60;57.82
68450;SHT30;55434;39.570;2.652;2023-02-01T14:40:00;15.93;56.63
68450;SHT30;55434;39.570;2.652;2023-02-01T14:47:52;15.38;58.81
68450;SHT30;55434;39.570;2.652;2023-02-01T14:55:59;15.22;61.00
68450;SHT30;55434;39.570;2.652;2023-02-01T15:06:44;14.19;64.79
68450;SHT30;55434;39.570;2.652;2023-02-01T15:11:59;14.46;63.19
68450;SHT30;55434;39.570;2.652;2023-02-01T15:14:42;14.59;62.59
68450;SHT30;55434;39.570;2.652;2023-02-01T15:17:25;14.19;64.73
68450;SHT30;55434;39.570;2.652;2023-02-01T15:19:56;14.22;64.67
68450;SHT30;55434;39.570;2.652;2023-02-01T15:22:24;14.60;63.36
68450;SHT30;55434;39.570;2.652;2023-02-01T15:24:56;14.89;62.47
68450;SHT30;55434;39.570;2.652;2023-02-01T15:27:39;14.44;63.47
68450;SHT30;55434;39.570;2.652;2023-02-01T15:30:18;14.56;64.30
68450;SHT30;55434;39.570;2.652;2023-02-01T15:32:45;14.95;62.97
68450;SHT30;55434;39.570;2.652;2023-02-01T15:35:39;15.19;62.42
68450;SHT30;55434;39.570;2.652;2023-02-01T15:38:39;15.49;61.10
68450;SHT30;55434;39.570;2.652;2023-02-01T15:46:36;15.79;57.86
68450;SHT30;55434;39.570;2.652;2023-02-01T15:49:11;15.62;58.11
68450;SHT30;55434;39.570;2.652;2023-02-01T15:51:44;15.83;58.06
68450;SHT30;55434;39.570;2.652;2023-02-01T15:54:28;16.09;57.74
68450;SHT30;55434;39.570;2.652;2023-02-01T15:57:01;16.42;55.98
68450;SHT30;55434;39.570;2.652;2023-02-01T15:59:43;16.13;57.08
68450;SHT30;55434;39.570;2.652;2023-02-01T16:02:53;16.13;56.67
68450;SHT30;55434;39.570;2.652;2023-02-01T16:05:31;16.35;56.43
68450;SHT30;55434;39.570;2.652;2023-02-01T16:08:21;16.17;56.77
68450;SHT30;55434;39.570;2.652;2023-02-01T16:10:50;15.50;58.84
68450;SHT30;55434;39.570;2.652;2023-02-01T16:13:19;15.38;58.10
68450;SHT30;55434;39.570;2.652;2023-02-01T16:15:49;15.29;58.91
68450;SHT30;55434;39.570;2.652;2023-02-01T16:18:15;15.04;58.89
68450;SHT30;55434;39.570;2.652;2023-02-01T16:20:44;14.73;59.28
68450;SHT30;55434;39.570;2.652;2023-02-01T16:23:10;14.66;59.04
68450;SHT30;55434;39.570;2.652;2023-02-01T16:25:39;14.54;58.50
68450;SHT30;55434;39.570;2.652;2023-02-01T16:28:05;14.36;58.65
68450;SHT30;55434;39.570;2.652;2023-02-01T16:30:34;14.36;58.70
68450;SHT30;55434;39.570;2.652;2023-02-01T16:33:01;14.46;59.02
68450;SHT30;55434;39.570;2.652;2023-02-01T16:35:35;14.33;58.94
68450;SHT30;55434;39.570;2.652;2023-02-01T16:38:05;14.33;59.51
68450;SHT30;55434;39.570;2.652;2023-02-01T16:40:42;14.25;60.06
68450;SHT30;55434;39.570;2.652;2023-02-01T16:43:14;14.08;60.92
68450;SHT30;55434;39.570;2.652;2023-02-01T16:45:42;14.09;61.55
68450;SHT30;55434;39.570;2.652;2023-02-01T16:48:23;14.01;62.03
68450;SHT30;55434;39.570;2.652;2023-02-01T16:50:53;13.85;62.74
68450;SHT30;55434;39.570;2.652;2023-02-01T16:53:21;13.66;63.49
68450;SHT30;55434;39.570;2.652;2023-02-01T16:55:47;13.52;63.98
68450;SHT30;55434;39.570;2.652;2023-02-01T16:58:19;13.44;64.64
68450;SHT30;55434;39.570;2.652;2023-02-01T17:00:48;13.34;64.87
68450;SHT30;55434;39.570;2.652;2023-02-01T17:03:14;13.20;65.22
68450;SHT30;55434;39.570;2.652;2023-02-01T17:05:55;13.10;65.78
68450;SHT30;55434;39.570;2.652;2023-02-01T17:08:40;12.97;66.09
68450;SHT30;55434;39.570;2.652;2023-02-01T17:11:07;12.96;66.61
68450;SHT30;55434;39.570;2.652;2023-02-01T17:13:33;12.89;66.80
68450;SHT30;55434;39.570;2.652;2023-02-01T17:18:53;12.84;67.27
68450;SHT30;55434;39.570;2.652;2023-02-01T17:21:20;12.80;67.29
68450;SHT30;55434;39.570;2.652;2023-02-01T17:23:45;12.80;67.45
68450;SHT30;55434;39.570;2.652;2023-02-01T17:26:13;12.76;67.32
68450;SHT30;55434;39.570;2.652;2023-02-01T17:28:40;12.70;67.16
68450;SHT30;55434;39.570;2.652;2023-02-01T17:31:07;12.67;67.99
68450;SHT30;55434;39.570;2.652;2023-02-01T17:33:35;12.66;68.45
68450;SHT30;55434;39.570;2.652;2023-02-01T17:36:04;12.60;69.28
68450;SHT30;55434;39.570;2.652;2023-02-01T17:38:31;12.53;69.91
68450;SHT30;55434;39.570;2.652;2023-02-01T17:40:57;12.48;70.42
68450;SHT30;55434;39.570;2.652;2023-02-01T17:43:24;12.42;71.31
68450;SHT30;55434;39.570;2.652;2023-02-01T17:46:01;12.38;71.46
68450;SHT30;55434;39.570;2.652;2023-02-01T17:48:28;12.33;71.84
68450;SHT30;55434;39.570;2.652;2023-02-01T17:50:53;12.28;72.17
68450;SHT30;55434;39.570;2.652;2023-02-01T17:53:27;12.24;72.49
68450;SHT30;55434;39.570;2.652;2023-02-01T17:55:53;12.21;72.69
68450;SHT30;55434;39.570;2.652;2023-02-01T17:58:23;12.14;73.19
68450;SHT30;55434;39.570;2.652;2023-02-01T18:00:49;12.11;73.06
68450;SHT30;55434;39.570;2.652;2023-02-01T18:03:29;12.06;73.40
68450;SHT30;55434;39.570;2.652;2023-02-01T18:05:57;12.04;73.32
68450;SHT30;55434;39.570;2.652;2023-02-01T18:08:26;11.99;73.43
68450;SHT30;55434;39.570;2.652;2023-02-01T18:10:55;11.99;73.45
68450;SHT30;55434;39.570;2.652;2023-02-01T18:13:24;12.01;73.40
68450;SHT30;55434;39.570;2.652;2023-02-01T18:15:50;11.97;73.55
68450;SHT30;55434;39.570;2.652;2023-02-01T18:18:15;11.92;72.69
68450;SHT30;55434;39.570;2.652;2023-02-01T18:20:43;11.91;72.56
68450;SHT30;55434;39.570;2.652;2023-02-01T18:23:27;11.85;72.94
68450;SHT30;55434;39.570;2.652;2023-02-01T18:25:52;11.82;73.31
68450;SHT30;55434;39.570;2.652;2023-02-01T18:28:19;11.74;73.06
68450;SHT30;55434;39.570;2.652;2023-02-01T18:30:46;11.68;73.35
68450;SHT30;55434;39.570;2.652;2023-02-01T18:33:16;11.60;73.05
68450;SHT30;55434;39.570;2.652;2023-02-01T18:35:42;11.56;73.14
68450;SHT30;55434;39.570;2.652;2023-02-01T18:38:08;11.53;73.51
68450;SHT30;55434;39.570;2.652;2023-02-01T18:40:45;11.48;73.07
68450;SHT30;55434;39.570;2.652;2023-02-01T18:43:13;11.44;73.25
68450;SHT30;55434;39.570;2.652;2023-02-01T18:45:41;11.41;73.48
68450;SHT30;55434;39.570;2.652;2023-02-01T18:48:08;11.40;73.72
68450;SHT30;55434;39.570;2.652;2023-02-01T18:50:36;11.36;73.71
68450;SHT30;55434;39.570;2.652;2023-02-01T18:53:04;11.30;73.96